createdAt,value
2022-12-31T00:00:00.166Z,12.79
2022-12-31T00:01:00.165Z,12.79
2022-12-31T00:02:00.237Z,12.79
2022-12-31T00:03:00.348Z,12.78
2022-12-31T00:04:00.112Z,12.77
2022-12-31T00:05:00.140Z,12.75
2022-12-31T00:06:00.125Z,12.75
2022-12-31T00:07:00.133Z,12.74
2022-12-31T00:08:00.049Z,12.75
2022-12-31T00:09:00.443Z,12.74
2022-12-31T00:10:00.053Z,12.75
2022-12-31T00:11:00.101Z,12.78
2022-12-31T00:12:00.024Z,12.78
2022-12-31T00:13:00.090Z,12.77
2022-12-31T00:14:00.046Z,12.77
2022-12-31T00:15:00.009Z,12.77
2022-12-31T00:16:00.035Z,12.75
2022-12-31T00:17:00.096Z,12.75
2022-12-31T00:18:00.033Z,12.78
2022-12-31T00:19:00.034Z,12.79
2022-12-31T00:19:59.945Z,12.79
2022-12-31T00:21:01.237Z,12.81
2022-12-31T00:21:59.925Z,12.81
2022-12-31T00:22:59.957Z,12.81
2022-12-31T00:23:59.945Z,12.81
2022-12-31T00:24:59.883Z,12.81
2022-12-31T00:25:59.907Z,12.79
2022-12-31T00:26:59.947Z,12.78
2022-12-31T00:28:00.180Z,12.78
2022-12-31T00:28:59.992Z,12.77
2022-12-31T00:30:04.420Z,12.78
2022-12-31T00:30:59.879Z,12.77
2022-12-31T00:31:59.853Z,12.77
2022-12-31T00:32:59.809Z,12.78
2022-12-31T00:33:59.808Z,12.78
2022-12-31T00:35:00.147Z,12.78
2022-12-31T00:35:59.807Z,12.78
2022-12-31T00:36:59.773Z,12.78
2022-12-31T00:37:59.741Z,12.78
2022-12-31T00:38:59.725Z,12.78
2022-12-31T00:39:59.721Z,12.79
2022-12-31T00:40:59.763Z,12.79
2022-12-31T00:42:00.006Z,12.81
2022-12-31T00:42:59.678Z,12.81
2022-12-31T00:43:59.761Z,12.81
2022-12-31T00:44:59.684Z,12.82
2022-12-31T00:45:59.681Z,12.82
2022-12-31T00:46:59.665Z,12.82
2022-12-31T00:47:59.650Z,12.81
2022-12-31T00:48:59.926Z,12.79
2022-12-31T00:49:59.631Z,12.79
2022-12-31T00:50:59.621Z,12.84
2022-12-31T00:51:59.620Z,12.82
2022-12-31T00:52:59.956Z,12.84
2022-12-31T00:53:59.590Z,12.84
2022-12-31T00:54:59.586Z,12.85
2022-12-31T00:55:59.880Z,12.88
2022-12-31T00:56:59.563Z,12.87
2022-12-31T00:57:59.540Z,12.85
2022-12-31T00:58:59.566Z,12.85
2022-12-31T00:59:59.487Z,12.84
2022-12-31T01:00:59.647Z,12.82
2022-12-31T01:01:59.630Z,12.81
2022-12-31T01:02:59.889Z,12.82
2022-12-31T01:03:59.499Z,12.84
2022-12-31T01:04:59.518Z,12.82
2022-12-31T01:05:59.448Z,12.82
2022-12-31T01:06:59.430Z,12.84
2022-12-31T01:07:59.434Z,12.84
2022-12-31T01:08:59.422Z,12.82
2022-12-31T01:09:59.749Z,12.84
2022-12-31T01:10:59.458Z,12.85
2022-12-31T01:11:59.398Z,12.85
2022-12-31T01:12:59.360Z,12.87
2022-12-31T01:13:59.347Z,12.87
2022-12-31T01:14:59.377Z,12.88
2022-12-31T01:15:59.365Z,12.87
2022-12-31T01:16:59.677Z,12.87
2022-12-31T01:17:59.381Z,12.88
2022-12-31T01:18:59.347Z,12.88
2022-12-31T01:19:59.325Z,12.88
2022-12-31T01:20:59.290Z,12.87
2022-12-31T01:21:59.282Z,12.87
2022-12-31T01:22:59.383Z,12.84
2022-12-31T01:23:59.540Z,12.82
2022-12-31T01:24:59.241Z,12.84
2022-12-31T01:25:59.253Z,12.85
2022-12-31T01:26:59.277Z,12.85
2022-12-31T01:27:59.220Z,12.84
2022-12-31T01:28:59.265Z,12.82
2022-12-31T01:29:59.174Z,12.82
2022-12-31T01:30:59.498Z,12.81
2022-12-31T01:31:59.192Z,12.79
2022-12-31T01:32:59.164Z,12.78
2022-12-31T01:33:59.159Z,12.78
2022-12-31T01:34:59.237Z,12.79
2022-12-31T01:35:59.166Z,12.78
2022-12-31T01:36:59.104Z,12.77
2022-12-31T01:37:59.407Z,12.77
2022-12-31T01:38:59.100Z,12.77
2022-12-31T01:39:59.693Z,12.77
2022-12-31T01:40:59.121Z,12.75
2022-12-31T01:41:59.061Z,12.78
2022-12-31T01:42:59.045Z,12.75
2022-12-31T01:43:59.042Z,12.77
2022-12-31T01:44:59.287Z,12.75
2022-12-31T01:45:59.080Z,12.75
2022-12-31T01:46:59.057Z,12.75
2022-12-31T01:47:59.001Z,12.75
2022-12-31T01:48:58.971Z,12.75
2022-12-31T01:49:58.962Z,12.77
2022-12-31T01:50:58.962Z,12.74
2022-12-31T01:51:59.218Z,12.71
2022-12-31T01:52:59.019Z,12.74
2022-12-31T01:53:58.978Z,12.74
2022-12-31T01:54:58.918Z,12.74
2022-12-31T01:55:58.899Z,12.71
2022-12-31T01:56:58.878Z,12.70
2022-12-31T01:57:58.875Z,12.71
2022-12-31T01:58:59.232Z,12.70
2022-12-31T01:59:58.881Z,12.71
2022-12-31T02:00:58.995Z,12.70
2022-12-31T02:01:59.120Z,12.69
2022-12-31T02:02:58.943Z,12.71
2022-12-31T02:03:58.818Z,12.70
2022-12-31T02:04:58.841Z,12.70
2022-12-31T02:05:59.074Z,12.70
2022-12-31T02:06:58.794Z,12.71
2022-12-31T02:07:58.766Z,12.70
2022-12-31T02:08:58.762Z,12.70
2022-12-31T02:09:58.736Z,12.70
2022-12-31T02:10:58.783Z,12.70
2022-12-31T02:11:58.737Z,12.70
2022-12-31T02:12:58.999Z,12.71
2022-12-31T02:13:58.967Z,12.71
2022-12-31T02:14:58.715Z,12.70
2022-12-31T02:15:58.724Z,12.74
2022-12-31T02:16:58.731Z,12.71
2022-12-31T02:17:58.667Z,12.71
2022-12-31T02:18:58.683Z,12.71
2022-12-31T02:19:58.932Z,12.71
2022-12-31T02:20:58.627Z,12.70
2022-12-31T02:21:58.631Z,12.71
2022-12-31T02:22:58.671Z,12.71
2022-12-31T02:23:58.603Z,12.74
2022-12-31T02:24:58.582Z,12.74
2022-12-31T02:25:58.625Z,12.70
2022-12-31T02:26:58.839Z,12.71
2022-12-31T02:27:58.550Z,12.71
2022-12-31T02:28:58.567Z,12.69
2022-12-31T02:29:58.547Z,12.70
2022-12-31T02:30:58.587Z,12.69
2022-12-31T02:31:58.509Z,12.69
2022-12-31T02:32:58.494Z,12.70
2022-12-31T02:33:58.831Z,12.67
2022-12-31T02:34:58.503Z,12.69
2022-12-31T02:35:58.482Z,12.67
2022-12-31T02:36:58.463Z,12.66
2022-12-31T02:37:58.417Z,12.64
2022-12-31T02:38:58.434Z,12.63
2022-12-31T02:39:58.443Z,12.64
2022-12-31T02:40:58.449Z,12.66
2022-12-31T02:41:58.680Z,12.67
2022-12-31T02:42:58.367Z,12.69
2022-12-31T02:43:58.348Z,12.69
2022-12-31T02:44:58.395Z,12.70
2022-12-31T02:45:58.370Z,12.71
2022-12-31T02:46:58.424Z,12.71
2022-12-31T02:47:58.340Z,12.71
2022-12-31T02:48:58.610Z,12.70
2022-12-31T02:49:58.317Z,12.70
2022-12-31T02:50:58.309Z,12.71
2022-12-31T02:51:58.307Z,12.70
2022-12-31T02:52:58.315Z,12.70
2022-12-31T02:53:58.282Z,12.69
2022-12-31T02:54:58.260Z,12.70
2022-12-31T02:55:58.569Z,12.69
2022-12-31T02:56:58.243Z,12.69
2022-12-31T02:57:58.244Z,12.74
2022-12-31T02:58:58.255Z,12.71
2022-12-31T02:59:58.209Z,12.71
2022-12-31T03:00:58.343Z,12.71
2022-12-31T03:01:58.362Z,12.71
2022-12-31T03:02:58.495Z,12.74
2022-12-31T03:03:58.176Z,12.70
2022-12-31T03:04:58.209Z,12.71
2022-12-31T03:05:58.153Z,12.70
2022-12-31T03:06:58.129Z,12.70
2022-12-31T03:07:58.136Z,12.70
2022-12-31T03:08:58.131Z,12.69
2022-12-31T03:09:58.391Z,12.70
2022-12-31T03:10:58.115Z,12.69
2022-12-31T03:11:58.092Z,12.67
2022-12-31T03:12:58.101Z,12.67
2022-12-31T03:13:58.054Z,12.67
2022-12-31T03:14:58.064Z,12.67
2022-12-31T03:15:58.122Z,12.67
2022-12-31T03:16:58.337Z,12.69
2022-12-31T03:17:58.033Z,12.69
2022-12-31T03:18:58.020Z,12.70
2022-12-31T03:19:58.011Z,12.70
2022-12-31T03:20:57.987Z,12.70
2022-12-31T03:21:57.993Z,12.71
2022-12-31T03:22:57.999Z,12.74
2022-12-31T03:23:58.235Z,12.75
2022-12-31T03:24:57.939Z,12.74
2022-12-31T03:25:57.959Z,12.74
2022-12-31T03:26:57.935Z,12.75
2022-12-31T03:27:57.917Z,12.75
2022-12-31T03:28:57.971Z,12.71
2022-12-31T03:29:57.891Z,12.71
2022-12-31T03:30:58.154Z,12.71
2022-12-31T03:31:57.871Z,12.70
2022-12-31T03:32:57.855Z,12.69
2022-12-31T03:33:57.851Z,12.66
2022-12-31T03:34:57.868Z,12.64
2022-12-31T03:35:57.843Z,12.63
2022-12-31T03:36:57.807Z,12.60
2022-12-31T03:37:58.080Z,12.57
2022-12-31T03:38:57.784Z,12.56
2022-12-31T03:39:57.796Z,12.52
2022-12-31T03:40:57.809Z,12.52
2022-12-31T03:41:57.769Z,12.51
2022-12-31T03:42:57.756Z,12.48
2022-12-31T03:43:57.754Z,12.46
2022-12-31T03:44:58.025Z,12.46
2022-12-31T03:45:57.763Z,12.45
2022-12-31T03:46:57.748Z,12.44
2022-12-31T03:47:57.689Z,12.44
2022-12-31T03:48:57.687Z,12.42
2022-12-31T03:49:57.683Z,12.41
2022-12-31T03:50:57.660Z,12.39
2022-12-31T03:51:57.918Z,12.38
2022-12-31T03:52:57.678Z,12.38
2022-12-31T03:53:57.647Z,12.38
2022-12-31T03:54:57.630Z,12.34
2022-12-31T03:55:57.613Z,12.34
2022-12-31T03:57:00.213Z,12.34
2022-12-31T03:57:57.587Z,12.33
2022-12-31T03:58:57.923Z,12.33
2022-12-31T03:59:57.588Z,12.31
2022-12-31T04:00:57.675Z,12.31
2022-12-31T04:01:57.710Z,12.30
2022-12-31T04:02:57.689Z,12.29
2022-12-31T04:03:57.533Z,12.27
2022-12-31T04:04:57.545Z,12.27
2022-12-31T04:05:57.836Z,12.29
2022-12-31T04:06:57.494Z,12.26
2022-12-31T04:07:57.492Z,12.26
2022-12-31T04:08:57.461Z,12.26
2022-12-31T04:09:57.462Z,12.24
2022-12-31T04:10:57.477Z,12.23
2022-12-31T04:11:57.444Z,12.23
2022-12-31T04:12:57.721Z,12.23
2022-12-31T04:13:57.423Z,12.21
2022-12-31T04:14:57.427Z,12.23
2022-12-31T04:15:57.393Z,12.21
2022-12-31T04:16:57.409Z,12.21
2022-12-31T04:17:57.393Z,12.21
2022-12-31T04:18:57.390Z,12.21
2022-12-31T04:19:57.634Z,12.21
2022-12-31T04:20:57.342Z,12.23
2022-12-31T04:21:57.345Z,12.21
2022-12-31T04:22:57.360Z,12.20
2022-12-31T04:23:57.316Z,12.20
2022-12-31T04:24:57.292Z,12.19
2022-12-31T04:25:57.345Z,12.16
2022-12-31T04:27:02.100Z,12.16
2022-12-31T04:27:57.271Z,12.15
2022-12-31T04:28:57.306Z,12.13
2022-12-31T04:29:57.251Z,12.13
2022-12-31T04:30:57.237Z,12.13
2022-12-31T04:31:57.328Z,12.12
2022-12-31T04:32:57.208Z,12.13
2022-12-31T04:33:57.484Z,12.11
2022-12-31T04:34:57.513Z,12.11
2022-12-31T04:35:57.192Z,12.09
2022-12-31T04:36:57.176Z,12.08
2022-12-31T04:37:57.165Z,12.08
2022-12-31T04:38:57.196Z,12.06
2022-12-31T04:40:03.510Z,12.06
2022-12-31T04:40:57.160Z,12.05
2022-12-31T04:41:57.129Z,12.06
2022-12-31T04:42:57.126Z,12.04
2022-12-31T04:43:57.112Z,12.04
2022-12-31T04:44:57.078Z,12.05
2022-12-31T04:45:57.106Z,12.05
2022-12-31T04:46:57.418Z,12.02
2022-12-31T04:47:57.051Z,12.04
2022-12-31T04:48:57.048Z,12.04
2022-12-31T04:49:57.034Z,12.05
2022-12-31T04:50:57.026Z,12.05
2022-12-31T04:51:57.020Z,12.04
2022-12-31T04:52:57.044Z,12.05
2022-12-31T04:53:57.310Z,12.02
2022-12-31T04:54:56.985Z,12.04
2022-12-31T04:55:56.965Z,12.04
2022-12-31T04:56:56.957Z,12.05
2022-12-31T04:57:56.944Z,12.05
2022-12-31T04:58:56.968Z,12.05
2022-12-31T04:59:56.921Z,12.05
2022-12-31T05:00:57.277Z,12.06
2022-12-31T05:01:57.140Z,12.09
2022-12-31T05:02:56.933Z,12.09
2022-12-31T05:03:56.873Z,12.09
2022-12-31T05:04:56.902Z,12.11
2022-12-31T05:05:56.853Z,12.13
2022-12-31T05:06:56.843Z,12.16
2022-12-31T05:07:57.119Z,12.16
2022-12-31T05:08:56.823Z,12.19
2022-12-31T05:09:56.847Z,12.20
2022-12-31T05:10:56.869Z,12.21
2022-12-31T05:11:56.804Z,12.20
2022-12-31T05:12:56.788Z,12.24
2022-12-31T05:13:56.778Z,12.23
2022-12-31T05:14:57.042Z,12.24
2022-12-31T05:15:56.754Z,12.26
2022-12-31T05:16:56.863Z,12.29
2022-12-31T05:17:56.745Z,12.29
2022-12-31T05:18:56.715Z,12.30
2022-12-31T05:19:56.715Z,12.33
2022-12-31T05:20:56.700Z,12.34
2022-12-31T05:21:56.963Z,12.38
2022-12-31T05:22:56.737Z,12.39
2022-12-31T05:23:56.676Z,12.39
2022-12-31T05:24:56.646Z,12.44
2022-12-31T05:25:56.638Z,12.49
2022-12-31T05:26:56.632Z,12.52
2022-12-31T05:27:56.620Z,12.54
2022-12-31T05:28:56.928Z,12.54
2022-12-31T05:29:57.294Z,12.56
2022-12-31T05:30:56.651Z,12.59
2022-12-31T05:31:56.581Z,12.62
2022-12-31T05:32:56.556Z,12.63
2022-12-31T05:33:56.557Z,12.67
2022-12-31T05:34:56.564Z,12.74
2022-12-31T05:35:56.838Z,12.75
2022-12-31T05:36:56.522Z,12.78
2022-12-31T05:37:56.533Z,12.81
2022-12-31T05:38:56.520Z,12.84
2022-12-31T05:39:56.547Z,12.92
2022-12-31T05:40:56.528Z,12.95
2022-12-31T05:41:56.482Z,12.99
2022-12-31T05:42:56.739Z,13.03
2022-12-31T05:43:56.463Z,13.06
2022-12-31T05:44:56.472Z,13.15
2022-12-31T05:45:56.525Z,13.22
2022-12-31T05:46:56.806Z,13.24
2022-12-31T05:47:56.407Z,13.25
2022-12-31T05:48:56.389Z,13.32
2022-12-31T05:49:56.662Z,13.37
2022-12-31T05:50:56.369Z,13.43
2022-12-31T05:51:56.390Z,13.46
2022-12-31T05:52:56.368Z,13.54
2022-12-31T05:53:56.348Z,13.56
2022-12-31T05:54:56.348Z,13.61
2022-12-31T05:55:56.335Z,13.65
2022-12-31T05:56:56.593Z,13.69
2022-12-31T05:57:56.330Z,13.73
2022-12-31T05:58:56.339Z,13.76
2022-12-31T05:59:56.283Z,13.81
2022-12-31T06:00:56.365Z,13.84
2022-12-31T06:01:56.272Z,13.91
2022-12-31T06:02:56.370Z,13.95
2022-12-31T06:03:56.361Z,13.96
2022-12-31T06:04:56.279Z,13.96
2022-12-31T06:05:56.224Z,13.98
2022-12-31T06:06:56.291Z,13.95
2022-12-31T06:07:56.209Z,13.95
2022-12-31T06:08:56.466Z,13.87
2022-12-31T06:09:56.174Z,13.67
2022-12-31T06:10:56.205Z,13.56
2022-12-31T06:11:56.288Z,13.44
2022-12-31T06:12:56.164Z,13.14
2022-12-31T06:13:56.127Z,12.99
2022-12-31T06:14:56.126Z,12.87
2022-12-31T06:15:56.119Z,12.74
2022-12-31T06:16:56.183Z,12.63
2022-12-31T06:17:56.101Z,12.57
2022-12-31T06:18:56.070Z,12.52
2022-12-31T06:19:56.071Z,12.48
2022-12-31T06:20:56.333Z,12.46
2022-12-31T06:21:56.048Z,12.42
2022-12-31T06:22:56.128Z,12.42
2022-12-31T06:23:56.042Z,12.38
2022-12-31T06:24:56.028Z,12.34
2022-12-31T06:25:56.006Z,12.29
2022-12-31T06:26:55.989Z,12.29
2022-12-31T06:27:56.319Z,12.27
2022-12-31T06:28:56.008Z,12.26
2022-12-31T06:29:55.950Z,12.24
2022-12-31T06:30:55.963Z,12.23
2022-12-31T06:31:55.934Z,12.21
2022-12-31T06:32:55.929Z,12.20
2022-12-31T06:33:55.917Z,12.21
2022-12-31T06:34:56.224Z,12.20
2022-12-31T06:35:55.902Z,12.23
2022-12-31T06:36:55.907Z,12.23
2022-12-31T06:37:55.882Z,12.24
2022-12-31T06:38:55.882Z,12.27
2022-12-31T06:39:55.847Z,12.27
2022-12-31T06:40:56.175Z,12.29
2022-12-31T06:41:56.107Z,12.29
2022-12-31T06:42:59.919Z,12.27
2022-12-31T06:43:55.823Z,12.29
2022-12-31T06:44:55.828Z,12.30
2022-12-31T06:45:55.806Z,12.29
2022-12-31T06:46:55.858Z,12.31
2022-12-31T06:47:55.823Z,12.31
2022-12-31T06:48:56.032Z,12.30
2022-12-31T06:49:55.744Z,12.30
2022-12-31T06:50:55.740Z,12.30
2022-12-31T06:51:55.727Z,12.30
2022-12-31T06:52:55.774Z,12.29
2022-12-31T06:53:55.702Z,12.29
2022-12-31T06:54:55.680Z,12.30
2022-12-31T06:55:57.020Z,12.30
2022-12-31T06:56:55.684Z,12.29
2022-12-31T06:57:55.663Z,12.30
2022-12-31T06:58:55.681Z,12.30
2022-12-31T06:59:55.656Z,12.31
2022-12-31T07:00:55.713Z,12.31
2022-12-31T07:01:55.756Z,12.31
2022-12-31T07:02:55.980Z,12.31
2022-12-31T07:03:55.601Z,12.34
2022-12-31T07:04:55.619Z,12.33
2022-12-31T07:05:55.568Z,12.31
2022-12-31T07:06:55.555Z,12.31
2022-12-31T07:07:55.559Z,12.31
2022-12-31T07:08:55.546Z,12.34
2022-12-31T07:09:55.800Z,12.39
2022-12-31T07:10:55.564Z,12.45
2022-12-31T07:11:55.510Z,12.49
2022-12-31T07:12:55.509Z,12.52
2022-12-31T07:13:55.484Z,12.52
2022-12-31T07:14:55.479Z,12.51
2022-12-31T07:15:55.517Z,12.51
2022-12-31T07:16:55.779Z,12.49
2022-12-31T07:17:55.441Z,12.48
2022-12-31T07:18:55.444Z,12.45
2022-12-31T07:19:57.720Z,12.45
2022-12-31T07:20:55.415Z,12.44
2022-12-31T07:21:55.391Z,12.44
2022-12-31T07:22:55.452Z,12.41
2022-12-31T07:23:55.649Z,12.39
2022-12-31T07:24:55.371Z,12.38
2022-12-31T07:25:55.355Z,12.37
2022-12-31T07:26:56.939Z,12.37
2022-12-31T07:27:55.334Z,12.38
2022-12-31T07:28:55.372Z,12.39
2022-12-31T07:29:55.305Z,12.42
2022-12-31T07:30:55.649Z,12.56
2022-12-31T07:31:55.289Z,12.70
2022-12-31T07:32:55.288Z,12.85
2022-12-31T07:33:55.282Z,13.02
2022-12-31T07:34:55.274Z,13.14
2022-12-31T07:35:55.254Z,13.29
2022-12-31T07:36:55.241Z,13.47
2022-12-31T07:37:55.540Z,13.56
2022-12-31T07:38:55.218Z,13.63
2022-12-31T07:39:55.226Z,13.73
2022-12-31T07:40:57.580Z,13.79
2022-12-31T07:41:55.186Z,13.84
2022-12-31T07:42:55.173Z,13.91
2022-12-31T07:43:55.163Z,13.98
2022-12-31T07:44:55.456Z,14.04
2022-12-31T07:45:55.155Z,14.10
2022-12-31T07:46:55.526Z,14.14
2022-12-31T07:48:00.509Z,14.17
2022-12-31T07:48:55.133Z,14.17
2022-12-31T07:49:55.116Z,14.24
2022-12-31T07:50:55.089Z,14.27
2022-12-31T07:51:55.361Z,14.28
2022-12-31T07:52:55.124Z,14.29
2022-12-31T07:53:55.091Z,14.31
2022-12-31T07:54:55.072Z,14.32
2022-12-31T07:55:55.051Z,14.37
2022-12-31T07:56:55.057Z,14.46
2022-12-31T07:57:55.017Z,14.53
2022-12-31T07:58:55.352Z,14.65
2022-12-31T07:59:55.010Z,14.75
2022-12-31T08:00:55.013Z,14.90
2022-12-31T08:01:55.150Z,14.93
2022-12-31T08:02:55.035Z,15.01
2022-12-31T08:03:54.964Z,15.02
2022-12-31T08:04:54.961Z,15.15
2022-12-31T08:05:55.201Z,15.27
2022-12-31T08:06:54.919Z,15.49
2022-12-31T08:07:54.904Z,15.57
2022-12-31T08:08:54.911Z,15.60
2022-12-31T08:09:54.889Z,15.59
2022-12-31T08:10:54.920Z,15.59
2022-12-31T08:11:54.865Z,15.61
2022-12-31T08:12:55.139Z,15.66
2022-12-31T08:13:54.857Z,15.72
2022-12-31T08:14:54.845Z,15.81
2022-12-31T08:15:54.873Z,15.86
2022-12-31T08:16:54.832Z,15.89
2022-12-31T08:17:54.808Z,15.89
2022-12-31T08:18:54.803Z,15.94
2022-12-31T08:19:55.060Z,15.94
2022-12-31T08:20:54.761Z,15.94
2022-12-31T08:21:54.800Z,15.94
2022-12-31T08:22:54.842Z,15.93
2022-12-31T08:23:54.752Z,15.89
2022-12-31T08:24:54.794Z,15.96
2022-12-31T08:25:54.734Z,16.03
2022-12-31T08:26:54.990Z,16.12
2022-12-31T08:27:54.696Z,16.12
2022-12-31T08:28:54.745Z,16.15
2022-12-31T08:29:54.699Z,16.20
2022-12-31T08:30:54.671Z,16.15
2022-12-31T08:31:54.692Z,16.12
2022-12-31T08:32:54.673Z,16.09
2022-12-31T08:33:54.932Z,16.15
2022-12-31T08:34:54.654Z,16.20
2022-12-31T08:35:54.615Z,16.25
2022-12-31T08:36:54.645Z,16.25
2022-12-31T08:37:54.622Z,16.23
2022-12-31T08:38:54.590Z,16.23
2022-12-31T08:39:54.571Z,16.22
2022-12-31T08:40:54.892Z,16.25
2022-12-31T08:41:54.546Z,16.30
2022-12-31T08:42:54.548Z,16.33
2022-12-31T08:43:54.538Z,16.34
2022-12-31T08:44:54.517Z,16.34
2022-12-31T08:45:54.640Z,16.33
2022-12-31T08:46:54.566Z,16.33
2022-12-31T08:47:59.709Z,16.34
2022-12-31T08:48:54.493Z,16.35
2022-12-31T08:49:54.482Z,16.41
2022-12-31T08:50:54.484Z,16.38
2022-12-31T08:51:54.439Z,16.37
2022-12-31T08:52:54.530Z,16.38
2022-12-31T08:53:54.434Z,16.41
2022-12-31T08:54:54.704Z,16.40
2022-12-31T08:55:54.418Z,16.40
2022-12-31T08:56:54.408Z,16.41
2022-12-31T08:57:54.375Z,16.41
2022-12-31T08:58:54.425Z,16.44
2022-12-31T08:59:54.363Z,16.40
2022-12-31T09:00:54.424Z,16.44
2022-12-31T09:01:54.788Z,16.45
2022-12-31T09:02:54.340Z,16.53
2022-12-31T09:03:54.345Z,16.50
2022-12-31T09:04:54.362Z,16.49
2022-12-31T09:05:54.382Z,16.55
2022-12-31T09:06:54.308Z,16.49
2022-12-31T09:07:54.308Z,16.45
2022-12-31T09:08:54.571Z,16.42
2022-12-31T09:09:54.275Z,16.45
2022-12-31T09:10:54.315Z,16.45
2022-12-31T09:11:54.269Z,16.48
2022-12-31T09:12:54.230Z,16.55
2022-12-31T09:13:54.258Z,16.63
2022-12-31T09:14:54.285Z,16.65
2022-12-31T09:15:55.223Z,16.65
2022-12-31T09:16:54.291Z,16.60
2022-12-31T09:17:54.232Z,16.58
2022-12-31T09:18:54.195Z,16.58
2022-12-31T09:19:54.174Z,16.59
2022-12-31T09:20:54.173Z,16.56
2022-12-31T09:21:54.152Z,16.58
2022-12-31T09:22:54.447Z,16.59
2022-12-31T09:23:54.122Z,16.60
2022-12-31T09:24:54.123Z,16.58
2022-12-31T09:25:54.103Z,16.60
2022-12-31T09:26:54.087Z,16.63
2022-12-31T09:27:54.100Z,16.65
2022-12-31T09:28:54.137Z,16.71
2022-12-31T09:29:54.322Z,16.80
2022-12-31T09:30:54.071Z,16.86
2022-12-31T09:31:54.093Z,16.85
2022-12-31T09:33:00.301Z,16.80
2022-12-31T09:33:54.082Z,16.75
2022-12-31T09:34:54.041Z,16.77
2022-12-31T09:35:54.021Z,16.75
2022-12-31T09:36:54.370Z,16.75
2022-12-31T09:37:54.011Z,16.75
2022-12-31T09:38:53.958Z,16.77
2022-12-31T09:39:53.958Z,16.83
2022-12-31T09:40:53.966Z,16.83
2022-12-31T09:41:53.989Z,16.85
2022-12-31T09:42:53.952Z,16.93
2022-12-31T09:43:59.008Z,17.00
2022-12-31T09:44:53.950Z,17.07
2022-12-31T09:45:53.920Z,17.04
2022-12-31T09:46:53.958Z,16.99
2022-12-31T09:47:53.873Z,17.07
2022-12-31T09:48:53.863Z,17.11
2022-12-31T09:49:53.836Z,17.07
2022-12-31T09:50:54.133Z,17.00
2022-12-31T09:51:53.882Z,16.96
2022-12-31T09:52:53.917Z,16.96
2022-12-31T09:53:53.848Z,16.99
2022-12-31T09:54:53.803Z,17.00
2022-12-31T09:55:53.780Z,17.06
2022-12-31T09:56:58.891Z,17.08
2022-12-31T09:57:53.786Z,17.11
2022-12-31T09:58:53.884Z,17.15
2022-12-31T09:59:53.739Z,17.18
2022-12-31T10:00:53.813Z,17.18
2022-12-31T10:01:53.802Z,17.22
2022-12-31T10:02:53.810Z,17.25
2022-12-31T10:03:53.988Z,17.26
2022-12-31T10:04:53.755Z,17.30
2022-12-31T10:05:53.732Z,17.32
2022-12-31T10:06:53.685Z,17.29
2022-12-31T10:07:53.926Z,17.22
2022-12-31T10:08:53.671Z,17.11
2022-12-31T10:09:53.670Z,16.98
2022-12-31T10:10:53.680Z,16.89
2022-12-31T10:11:53.693Z,16.68
2022-12-31T10:12:53.600Z,16.42
2022-12-31T10:13:53.653Z,16.31
2022-12-31T10:14:53.562Z,16.23
2022-12-31T10:15:53.881Z,16.20
2022-12-31T10:16:53.643Z,16.18
2022-12-31T10:17:53.610Z,16.14
2022-12-31T10:18:53.544Z,16.15
2022-12-31T10:19:53.561Z,16.18
2022-12-31T10:20:53.543Z,16.25
2022-12-31T10:21:53.788Z,16.33
2022-12-31T10:22:53.544Z,16.35
2022-12-31T10:23:53.489Z,16.35
2022-12-31T10:24:53.492Z,16.35
2022-12-31T10:25:53.468Z,16.40
2022-12-31T10:26:53.702Z,16.41
2022-12-31T10:27:53.521Z,16.44
2022-12-31T10:28:53.803Z,16.48
2022-12-31T10:29:53.432Z,16.49
2022-12-31T10:30:53.439Z,16.49
2022-12-31T10:31:53.451Z,16.52
2022-12-31T10:32:53.427Z,16.55
2022-12-31T10:33:53.403Z,16.59
2022-12-31T10:34:53.527Z,16.63
2022-12-31T10:35:53.647Z,16.65
2022-12-31T10:36:53.390Z,16.62
2022-12-31T10:37:53.368Z,16.53
2022-12-31T10:38:53.314Z,16.44
2022-12-31T10:39:53.405Z,16.34
2022-12-31T10:40:53.393Z,16.14
2022-12-31T10:41:53.384Z,15.94
2022-12-31T10:42:53.556Z,15.81
2022-12-31T10:43:53.288Z,15.68
2022-12-31T10:44:53.298Z,15.60
2022-12-31T10:45:53.323Z,15.48
2022-12-31T10:46:53.331Z,15.41
2022-12-31T10:47:53.284Z,15.31
2022-12-31T10:48:53.260Z,15.28
2022-12-31T10:49:53.600Z,15.24
2022-12-31T10:50:53.252Z,15.26
2022-12-31T10:51:53.227Z,15.26
2022-12-31T10:52:53.357Z,15.26
2022-12-31T10:53:53.205Z,15.28
2022-12-31T10:54:53.180Z,15.30
2022-12-31T10:55:53.218Z,15.27
2022-12-31T10:56:53.459Z,15.26
2022-12-31T10:57:53.584Z,15.24
2022-12-31T10:58:53.238Z,15.30
2022-12-31T10:59:53.119Z,15.31
2022-12-31T11:00:53.085Z,15.35
2022-12-31T11:01:53.209Z,15.33
2022-12-31T11:02:53.167Z,15.31
2022-12-31T11:03:53.375Z,15.31
2022-12-31T11:04:53.106Z,15.35
2022-12-31T11:05:53.039Z,15.35
2022-12-31T11:06:53.042Z,15.38
2022-12-31T11:07:53.053Z,15.42
2022-12-31T11:08:53.020Z,15.45
2022-12-31T11:09:53.053Z,15.51
2022-12-31T11:10:52.992Z,15.54
2022-12-31T11:11:53.016Z,15.59
2022-12-31T11:12:52.989Z,15.59
2022-12-31T11:13:52.957Z,15.61
2022-12-31T11:14:53.019Z,15.64
2022-12-31T11:15:52.975Z,15.64
2022-12-31T11:16:53.276Z,15.67
2022-12-31T11:17:52.978Z,15.68
2022-12-31T11:18:52.934Z,15.72
2022-12-31T11:19:52.963Z,15.76
2022-12-31T11:20:52.908Z,15.79
2022-12-31T11:21:52.944Z,15.86
2022-12-31T11:22:52.918Z,15.92
2022-12-31T11:23:53.150Z,15.97
2022-12-31T11:24:52.839Z,16.07
2022-12-31T11:25:52.902Z,16.12
2022-12-31T11:26:52.884Z,16.18
2022-12-31T11:27:52.900Z,16.30
2022-12-31T11:28:52.866Z,16.37
2022-12-31T11:29:52.904Z,16.40
2022-12-31T11:30:53.201Z,16.44
2022-12-31T11:31:52.769Z,16.48
2022-12-31T11:32:52.814Z,16.56
2022-12-31T11:33:52.840Z,16.59
2022-12-31T11:34:52.829Z,16.59
2022-12-31T11:35:52.821Z,16.56
2022-12-31T11:36:52.807Z,16.55
2022-12-31T11:37:53.001Z,16.45
2022-12-31T11:38:52.738Z,16.40
2022-12-31T11:39:52.704Z,16.35
2022-12-31T11:40:52.776Z,16.37
2022-12-31T11:41:52.667Z,16.40
2022-12-31T11:42:52.684Z,16.48
2022-12-31T11:43:52.696Z,16.45
2022-12-31T11:44:52.917Z,16.41
2022-12-31T11:45:52.662Z,16.42
2022-12-31T11:46:52.691Z,16.41
2022-12-31T11:48:28.408Z,16.42
2022-12-31T11:48:52.634Z,16.45
2022-12-31T11:49:52.636Z,16.48
2022-12-31T11:50:52.632Z,16.49
2022-12-31T11:51:52.872Z,16.52
2022-12-31T11:52:52.617Z,16.52
2022-12-31T11:53:52.531Z,16.55
2022-12-31T11:54:52.546Z,16.56
2022-12-31T11:55:52.554Z,16.55
2022-12-31T11:56:52.569Z,16.53
2022-12-31T11:57:52.608Z,16.60
2022-12-31T11:58:52.851Z,16.68
2022-12-31T11:59:52.562Z,16.70
2022-12-31T12:00:52.609Z,16.73
2022-12-31T12:01:52.541Z,16.74
2022-12-31T12:02:52.491Z,16.77
2022-12-31T12:03:52.525Z,16.81
2022-12-31T12:04:52.626Z,16.81
2022-12-31T12:05:52.679Z,16.89
2022-12-31T12:06:52.396Z,16.92
2022-12-31T12:07:52.381Z,16.95
2022-12-31T12:08:52.404Z,17.00
2022-12-31T12:09:52.365Z,17.13
2022-12-31T12:10:52.388Z,17.14
2022-12-31T12:11:52.382Z,17.14
2022-12-31T12:12:52.609Z,17.14
2022-12-31T12:13:52.327Z,17.15
2022-12-31T12:14:52.373Z,17.15
2022-12-31T12:15:52.408Z,17.15
2022-12-31T12:16:52.389Z,17.20
2022-12-31T12:17:52.365Z,17.25
2022-12-31T12:18:52.305Z,17.28
2022-12-31T12:19:52.587Z,17.28
2022-12-31T12:20:52.250Z,17.26
2022-12-31T12:21:52.292Z,17.25
2022-12-31T12:22:52.342Z,17.26
2022-12-31T12:23:52.239Z,17.29
2022-12-31T12:24:52.261Z,17.29
2022-12-31T12:25:52.192Z,17.29
2022-12-31T12:26:52.551Z,17.29
2022-12-31T12:27:52.188Z,17.32
2022-12-31T12:28:52.316Z,17.30
2022-12-31T12:29:52.165Z,17.30
2022-12-31T12:30:52.171Z,17.35
2022-12-31T12:31:52.214Z,17.40
2022-12-31T12:32:52.127Z,17.44
2022-12-31T12:33:52.418Z,17.46
2022-12-31T12:34:52.270Z,17.46
2022-12-31T12:35:52.237Z,17.44
2022-12-31T12:36:52.147Z,17.47
2022-12-31T12:37:52.110Z,17.50
2022-12-31T12:38:52.093Z,17.53
2022-12-31T12:39:52.075Z,17.57
2022-12-31T12:40:52.516Z,17.62
2022-12-31T12:41:52.069Z,17.59
2022-12-31T12:42:52.154Z,17.62
2022-12-31T12:43:52.061Z,17.67
2022-12-31T12:44:52.044Z,17.67
2022-12-31T12:45:52.578Z,17.66
2022-12-31T12:46:52.079Z,17.63
2022-12-31T12:47:52.354Z,17.57
2022-12-31T12:48:52.025Z,17.62
2022-12-31T12:49:51.976Z,17.55
2022-12-31T12:50:51.973Z,17.54
2022-12-31T12:51:52.009Z,17.55